Time;durP1;ratioP1;P1;durP2;ratioP2;P2;SDS_P1;SDS_P2;PMS_P1;PMS_P2;Temp;Humidity;BMP_temperature;BMP_pressure;BME280_temperature;BME280_humidity;BME280_pressure;Samples;Min_cycle;Max_cycle;Signal;HPM_P1;HPM_P2
2021/05/21 00:03:24;;;;;;;3.45;1.77;;;8.80;90.40;;;;;;5988909;24;20515;-90
2021/05/21 00:05:50;;;;;;;3.28;1.40;;;8.80;90.40;;;;;;5990100;24;20179;-91
2021/05/21 00:08:17;;;;;;;1.63;1.52;;;8.90;90.40;;;;;;5989014;24;20241;-90
2021/05/21 00:10:43;;;;;;;2.08;1.67;;;8.80;90.40;;;;;;5990392;24;20176;-90
2021/05/21 00:13:09;;;;;;;1.20;1.10;;;8.80;90.40;;;;;;5989670;23;20215;-90
2021/05/21 00:15:37;;;;;;;2.05;1.30;;;8.70;90.40;;;;;;5991673;24;20698;-92
2021/05/21 00:18:04;;;;;;;1.83;1.48;;;8.60;90.40;;;;;;5990711;24;20238;-90
2021/05/21 00:20:30;;;;;;;2.08;1.35;;;8.60;90.70;;;;;;5991699;24;20260;-90
2021/05/21 00:22:57;;;;;;;1.45;1.35;;;8.70;91.00;;;;;;5991752;24;20280;-90
2021/05/21 00:25:35;;;;;;;1.50;1.35;;;8.70;91.20;;;;;;5992442;24;20187;-90
2021/05/21 00:28:01;;;;;;;1.23;1.13;;;8.80;90.50;;;;;;5993007;24;20222;-90
2021/05/21 00:30:28;;;;;;;1.63;1.23;;;8.90;90.40;;;;;;5994229;24;20287;-89
2021/05/21 00:32:55;;;;;;;4.55;1.38;;;8.90;90.40;;;;;;5993193;24;20270;-89
2021/05/21 00:35:22;;;;;;;2.15;1.20;;;8.90;90.70;;;;;;5994659;24;20208;-89
2021/05/21 00:37:48;;;;;;;1.40;1.30;;;8.80;90.80;;;;;;5993135;24;20230;-89
2021/05/21 00:40:15;;;;;;;1.40;1.27;;;8.70;90.60;;;;;;5993605;24;20183;-91
2021/05/21 00:42:41;;;;;;;3.10;1.60;;;8.80;91.00;;;;;;5992490;24;20214;-90
2021/05/21 00:45:09;;;;;;;1.33;1.23;;;8.70;91.00;;;;;;5994486;24;20262;-89
2021/05/21 00:47:35;;;;;;;1.37;1.27;;;8.80;91.00;;;;;;5993004;24;20185;-89
2021/05/21 00:50:03;;;;;;;1.45;1.30;;;8.80;90.90;;;;;;5995478;24;20179;-90
2021/05/21 00:52:30;;;;;;;3.75;1.60;;;8.80;90.80;;;;;;5993514;24;20196;-89
2021/05/21 00:54:57;;;;;;;1.92;1.20;;;8.70;90.50;;;;;;5994085;24;20555;-90
2021/05/21 00:57:24;;;;;;;1.60;1.50;;;8.60;90.90;;;;;;5993730;24;20620;-90
2021/05/21 00:59:51;;;;;;;1.98;1.40;;;8.60;91.20;;;;;;5994222;24;20183;-92
2021/05/21 01:02:19;;;;;;;1.33;1.23;;;8.50;91.20;;;;;;5993864;24;20203;-90
2021/05/21 01:04:45;;;;;;;1.25;1.15;;;8.40;91.40;;;;;;5993565;24;20620;-90
2021/05/21 01:07:13;;;;;;;1.40;1.30;;;8.40;91.50;;;;;;5994067;24;20505;-89
2021/05/21 01:09:39;;;;;;;1.40;1.30;;;8.40;91.60;;;;;;5989949;24;20203;-90
2021/05/21 01:12:06;;;;;;;1.40;1.30;;;8.40;91.90;;;;;;5994388;24;20234;-89
2021/05/21 01:14:33;;;;;;;2.33;1.57;;;8.40;92.10;;;;;;5994604;23;20243;-89
2021/05/21 01:16:59;;;;;;;1.30;1.20;;;8.30;92.20;;;;;;5994611;24;20186;-89
2021/05/21 01:19:26;;;;;;;1.65;1.42;;;8.20;92.30;;;;;;5994130;24;20212;-89
2021/05/21 01:21:53;;;;;;;2.30;1.43;;;8.30;92.40;;;;;;5994560;24;20176;-89
2021/05/21 01:24:20;;;;;;;1.23;1.10;;;8.20;92.30;;;;;;5994862;24;20211;-89
2021/05/21 01:26:48;;;;;;;3.00;1.30;;;8.20;92.30;;;;;;5994815;24;20176;-90
2021/05/21 01:29:14;;;;;;;2.60;1.50;;;8.20;92.40;;;;;;5995680;24;20211;-89
2021/05/21 01:31:43;;;;;;;1.20;1.10;;;8.20;92.20;;;;;;5995905;24;20175;-90
2021/05/21 01:34:09;;;;;;;1.73;1.27;;;8.30;92.10;;;;;;5994170;24;20218;-90
2021/05/21 01:36:36;;;;;;;1.83;1.15;;;8.30;92.40;;;;;;5995302;24;20172;-89
2021/05/21 01:39:09;;;;;;;1.40;1.20;;;8.20;92.60;;;;;;5993668;24;20251;-89
2021/05/21 01:41:37;;;;;;;3.60;1.10;;;8.20;92.90;;;;;;5995303;24;20197;-91
2021/05/21 01:44:05;;;;;;;1.50;1.17;;;8.20;92.60;;;;;;5994168;24;20203;-90
2021/05/21 01:46:32;;;;;;;1.73;1.45;;;8.20;92.50;;;;;;5994449;24;20249;-90
2021/05/21 01:48:58;;;;;;;1.23;1.13;;;8.20;92.60;;;;;;5994058;24;20210;-90
2021/05/21 01:51:27;;;;;;;2.00;1.60;;;8.20;92.50;;;;;;5992969;24;20179;-89
2021/05/21 02:04:43;;;;;;;1.10;1.00;;;8.10;92.40;;;;;;6149298;22;900706;-91
2021/05/21 02:07:12;;;;;;;2.35;1.33;;;8.30;92.50;;;;;;6092401;23;20204;-90
2021/05/21 02:09:47;;;;;;;1.23;1.13;;;8.40;92.50;;;;;;6085229;23;20259;-90
2021/05/21 02:12:14;;;;;;;0.80;0.75;;;8.30;92.20;;;;;;6083185;23;20236;-89
2021/05/21 02:14:40;;;;;;;0.95;0.90;;;8.20;92.20;;;;;;6084702;23;20264;-90
2021/05/21 02:17:07;;;;;;;2.63;1.00;;;8.20;92.30;;;;;;6084891;23;20291;-90
2021/05/21 02:19:33;;;;;;;1.37;1.20;;;8.10;92.20;;;;;;6086499;23;20192;-90
2021/05/21 02:22:01;;;;;;;1.00;1.00;;;8.10;92.70;;;;;;6086837;23;20240;-89
2021/05/21 02:24:27;;;;;;;2.27;1.00;;;8.00;92.70;;;;;;6087945;23;20195;-90
2021/05/21 02:26:54;;;;;;;1.10;1.00;;;8.00;93.00;;;;;;6086585;23;20209;-89
2021/05/21 02:29:20;;;;;;;1.17;1.07;;;8.10;92.70;;;;;;6088079;23;20276;-89
2021/05/21 02:31:47;;;;;;;1.67;0.97;;;8.10;92.70;;;;;;6085661;23;20209;-89
2021/05/21 02:34:13;;;;;;;1.50;0.90;;;8.10;92.60;;;;;;6087074;23;20501;-90
2021/05/21 02:36:39;;;;;;;1.25;1.00;;;8.10;92.70;;;;;;6085843;23;20660;-89
2021/05/21 02:39:07;;;;;;;1.13;1.03;;;8.20;92.40;;;;;;6087551;23;20200;-90
2021/05/21 02:41:33;;;;;;;1.00;0.90;;;8.20;92.30;;;;;;6085511;23;20208;-90
2021/05/21 02:44:00;;;;;;;1.50;0.97;;;8.10;92.20;;;;;;6087430;23;20177;-89
2021/05/21 02:46:26;;;;;;;2.25;1.00;;;8.00;92.40;;;;;;6085789;23;20208;-90
2021/05/21 02:48:53;;;;;;;1.80;0.77;;;8.10;92.10;;;;;;6086595;23;20256;-90
2021/05/21 02:51:20;;;;;;;6.30;1.25;;;8.10;92.10;;;;;;6086554;23;20256;-90
2021/05/21 02:53:47;;;;;;;2.97;1.00;;;8.10;92.10;;;;;;6075308;23;20273;-90
2021/05/21 02:56:15;;;;;;;4.40;1.02;;;8.10;92.30;;;;;;6056664;23;20242;-90
2021/05/21 02:58:41;;;;;;;2.60;1.07;;;8.20;92.10;;;;;;6058915;23;20257;-90
2021/05/21 03:01:08;;;;;;;4.38;1.08;;;8.20;92.10;;;;;;6044338;23;20285;-89
2021/05/21 03:03:34;;;;;;;3.23;1.03;;;8.20;92.10;;;;;;6032885;23;20237;-93
2021/05/21 03:06:01;;;;;;;2.95;1.50;;;8.20;92.20;;;;;;6062217;23;20216;-91
2021/05/21 03:08:27;;;;;;;2.28;1.40;;;8.20;92.00;;;;;;6079485;23;20209;-89
2021/05/21 03:10:53;;;;;;;1.83;0.85;;;8.20;91.80;;;;;;6068748;23;20281;-90
2021/05/21 03:13:21;;;;;;;1.87;0.80;;;8.40;91.70;;;;;;6048855;23;20194;-90
2021/05/21 03:15:49;;;;;;;1.90;1.30;;;8.40;91.40;;;;;;6048146;23;20665;-90
2021/05/21 03:18:18;;;;;;;2.45;1.30;;;8.40;91.30;;;;;;6047981;23;20184;-89
2021/05/21 03:20:45;;;;;;;1.58;1.30;;;8.40;91.40;;;;;;6048379;23;20212;-91
2021/05/21 03:23:11;;;;;;;1.10;0.98;;;8.40;91.60;;;;;;6047420;23;20177;-89
2021/05/21 03:25:40;;;;;;;1.05;0.95;;;8.50;91.40;;;;;;6047518;23;20285;-90
2021/05/21 03:28:07;;;;;;;1.15;1.02;;;8.50;91.40;;;;;;6047860;23;20178;-89
2021/05/21 03:30:34;;;;;;;1.27;0.88;;;8.60;91.40;;;;;;6047231;23;20205;-90
2021/05/21 03:33:01;;;;;;;1.65;0.98;;;8.60;91.30;;;;;;6048952;23;20193;-89
2021/05/21 03:35:27;;;;;;;1.75;1.20;;;8.60;91.40;;;;;;6047728;23;20296;-90
2021/05/21 03:37:54;;;;;;;1.33;1.13;;;8.70;91.60;;;;;;6048976;23;20170;-89
2021/05/21 03:40:20;;;;;;;1.10;1.00;;;8.80;91.50;;;;;;6047636;23;20234;-90
2021/05/21 03:42:48;;;;;;;1.23;1.00;;;8.70;90.80;;;;;;6048026;23;20253;-90
2021/05/21 03:45:15;;;;;;;1.20;1.10;;;8.70;91.00;;;;;;6046795;23;20193;-90
2021/05/21 03:47:45;;;;;;;2.92;1.10;;;8.80;91.00;;;;;;6047107;23;20184;-90
2021/05/21 03:50:13;;;;;;;0.95;0.95;;;9.00;91.00;;;;;;6046408;23;20593;-90
2021/05/21 03:52:39;;;;;;;1.77;0.80;;;8.90;90.80;;;;;;6046858;23;20206;-89
2021/05/21 03:55:07;;;;;;;0.82;0.82;;;8.90;90.40;;;;;;6046591;23;20202;-90
2021/05/21 03:57:34;;;;;;;0.98;0.90;;;9.00;90.70;;;;;;6046422;23;20190;-90
2021/05/21 04:00:01;;;;;;;2.33;0.90;;;9.00;90.50;;;;;;6046579;23;20239;-90
2021/05/21 04:02:28;;;;;;;3.05;0.80;;;9.00;90.20;;;;;;6046596;23;20209;-91
2021/05/21 04:04:55;;;;;;;0.95;0.63;;;9.10;89.40;;;;;;6046343;23;20185;-89
2021/05/21 04:07:21;;;;;;;0.88;0.80;;;9.10;89.40;;;;;;6045968;23;20244;-90
2021/05/21 04:09:48;;;;;;;1.30;0.90;;;9.30;87.90;;;;;;6047628;23;20206;-90
2021/05/21 04:12:14;;;;;;;0.70;0.70;;;9.40;86.80;;;;;;6046495;23;20252;-90
2021/05/21 04:14:40;;;;;;;0.60;0.60;;;9.50;88.10;;;;;;6046742;23;20178;-91
2021/05/21 04:17:07;;;;;;;4.03;1.02;;;9.50;86.20;;;;;;6045775;23;20528;-91
2021/05/21 04:19:33;;;;;;;0.80;0.80;;;9.60;85.70;;;;;;6048575;23;20201;-90
2021/05/21 04:22:00;;;;;;;1.77;0.60;;;9.60;85.40;;;;;;6047633;23;20210;-92
2021/05/21 04:24:27;;;;;;;3.67;0.70;;;9.60;82.10;;;;;;6047392;23;20271;-91
2021/05/21 04:26:53;;;;;;;0.70;0.70;;;9.70;82.90;;;;;;6055259;23;20201;-89
2021/05/21 04:29:19;;;;;;;1.00;0.70;;;9.70;83.50;;;;;;6055078;23;20582;-90
2021/05/21 04:31:46;;;;;;;0.90;0.90;;;9.80;83.20;;;;;;6025957;23;20237;-90
2021/05/21 04:34:12;;;;;;;4.18;0.80;;;9.90;81.50;;;;;;6046775;23;20292;-91
2021/05/21 04:36:39;;;;;;;0.77;0.60;;;10.00;80.00;;;;;;6055102;23;20190;-88
2021/05/21 04:39:06;;;;;;;0.73;0.68;;;10.10;78.60;;;;;;6053985;23;20177;-88
2021/05/21 04:41:32;;;;;;;0.85;0.85;;;10.10;76.70;;;;;;6045368;23;20201;-88
2021/05/21 04:43:59;;;;;;;1.90;0.90;;;10.20;77.50;;;;;;6047872;23;20186;-88
2021/05/21 04:46:25;;;;;;;1.30;0.82;;;10.30;76.70;;;;;;6047254;23;20284;-88
2021/05/21 04:48:52;;;;;;;0.63;0.60;;;10.30;76.40;;;;;;6055695;23;20178;-88
2021/05/21 04:51:18;;;;;;;1.38;0.70;;;10.40;75.10;;;;;;6056515;23;20213;-88
2021/05/21 04:56:16;;;;;;;1.13;0.80;;;10.50;76.20;;;;;;6019146;23;20224;-90
2021/05/21 04:58:42;;;;;;;1.05;0.88;;;10.60;73.80;;;;;;6004548;23;20218;-90
2021/05/21 05:01:12;;;;;;;1.30;0.77;;;10.60;73.70;;;;;;6029379;23;20222;-90
2021/05/21 05:04:09;;;;;;;0.95;0.88;;;10.80;73.90;;;;;;6033270;23;20191;-90
2021/05/21 05:06:35;;;;;;;1.58;0.90;;;10.90;74.00;;;;;;6035510;23;20235;-90
2021/05/21 05:09:09;;;;;;;0.90;0.90;;;11.10;73.60;;;;;;6004025;23;20210;-92
2021/05/21 05:11:39;;;;;;;0.80;0.80;;;11.30;69.30;;;;;;6021439;23;20265;-92
2021/05/21 05:14:06;;;;;;;0.82;0.80;;;11.50;68.50;;;;;;6020887;23;20694;-91
2021/05/21 05:16:32;;;;;;;1.05;0.88;;;11.50;65.60;;;;;;6016995;23;20202;-90
2021/05/21 05:18:59;;;;;;;1.40;1.00;;;11.50;62.20;;;;;;6018481;23;20249;-89
2021/05/21 05:21:26;;;;;;;2.90;1.10;;;11.70;63.90;;;;;;6016084;23;20211;-89
2021/05/21 05:23:52;;;;;;;1.13;0.88;;;11.90;64.10;;;;;;6016734;23;20225;-90
2021/05/21 05:26:19;;;;;;;4.95;0.90;;;11.90;59.70;;;;;;6018707;23;20254;-90
2021/05/21 05:28:47;;;;;;;3.13;1.20;;;12.10;57.70;;;;;;6021858;23;20183;-90
2021/05/21 05:31:13;;;;;;;1.50;0.88;;;12.30;57.80;;;;;;6019258;23;20206;-89
2021/05/21 05:33:40;;;;;;;4.00;0.93;;;12.50;56.60;;;;;;6025564;23;20285;-93
2021/05/21 05:39:36;;;;;;;2.92;0.75;;;12.80;55.10;;;;;;6031177;23;20195;-88
2021/05/21 05:42:03;;;;;;;1.40;0.90;;;13.00;53.00;;;;;;6022002;23;20277;-87
2021/05/21 05:44:31;;;;;;;3.00;0.70;;;13.00;51.80;;;;;;6022576;23;20230;-87
2021/05/21 05:46:57;;;;;;;1.15;0.80;;;13.20;52.20;;;;;;6021240;23;20211;-87
2021/05/21 05:49:24;;;;;;;3.22;0.90;;;13.20;53.60;;;;;;6021773;23;20263;-86
2021/05/21 05:51:50;;;;;;;1.27;0.60;;;13.30;55.00;;;;;;6020152;23;20210;-87
2021/05/21 05:54:17;;;;;;;0.73;0.70;;;13.20;52.00;;;;;;6003239;23;20547;-87
2021/05/21 05:56:43;;;;;;;1.02;0.80;;;13.20;52.40;;;;;;5995189;24;20245;-93
2021/05/21 05:59:10;;;;;;;1.65;0.90;;;13.40;52.20;;;;;;5998167;24;20183;-89
2021/05/21 06:01:37;;;;;;;1.35;0.93;;;13.40;49.90;;;;;;5997211;24;20258;-90
2021/05/21 06:04:04;;;;;;;7.05;0.85;;;13.50;50.10;;;;;;5996783;24;20210;-89
2021/05/21 06:06:31;;;;;;;2.28;0.93;;;13.70;50.20;;;;;;5991556;24;20211;-90
2021/05/21 06:08:58;;;;;;;1.15;0.73;;;13.80;52.90;;;;;;5996028;24;20203;-91
2021/05/21 06:11:24;;;;;;;4.07;1.00;;;13.80;50.20;;;;;;5993160;24;20308;-91
2021/05/21 06:13:51;;;;;;;1.40;0.70;;;14.00;49.90;;;;;;5992896;24;20623;-89
2021/05/21 06:16:17;;;;;;;0.93;0.75;;;14.00;49.10;;;;;;5991325;24;20214;-90
2021/05/21 06:18:46;;;;;;;1.85;0.90;;;14.10;48.40;;;;;;5991226;24;20185;-89
2021/05/21 06:21:13;;;;;;;1.00;0.82;;;14.10;51.20;;;;;;5989073;24;20214;-90
2021/05/21 06:23:40;;;;;;;2.97;0.80;;;14.30;47.90;;;;;;5990423;24;20191;-90
2021/05/21 06:26:16;;;;;;;1.02;0.85;;;14.30;46.00;;;;;;5991572;24;20211;-90
2021/05/21 06:28:43;;;;;;;1.00;0.80;;;14.40;46.60;;;;;;5985939;24;20176;-92
2021/05/21 06:31:10;;;;;;;1.38;1.27;;;14.50;45.40;;;;;;5985085;24;20238;-90
2021/05/21 06:33:36;;;;;;;1.13;0.90;;;14.70;46.30;;;;;;5987825;24;20203;-89
2021/05/21 06:36:04;;;;;;;0.70;0.70;;;14.90;46.00;;;;;;5981142;24;20218;-90
2021/05/21 06:38:31;;;;;;;0.98;0.70;;;14.90;43.10;;;;;;5981488;24;20168;-90
2021/05/21 06:40:57;;;;;;;1.15;0.80;;;15.00;45.30;;;;;;5981886;24;20235;-91
2021/05/21 06:43:27;;;;;;;1.77;0.88;;;15.00;43.30;;;;;;5983142;24;20176;-90
2021/05/21 06:45:53;;;;;;;0.75;0.75;;;15.30;42.80;;;;;;5981958;24;20211;-90
2021/05/21 06:48:21;;;;;;;3.55;0.88;;;15.40;42.20;;;;;;5982953;24;20179;-91
2021/05/21 06:50:47;;;;;;;0.77;0.75;;;15.30;40.60;;;;;;5981848;24;20203;-91
2021/05/21 06:53:15;;;;;;;1.38;1.00;;;15.60;40.70;;;;;;5983903;23;20217;-91
2021/05/21 06:55:41;;;;;;;0.70;0.70;;;15.40;40.00;;;;;;5982360;24;20653;-90
2021/05/21 06:58:07;;;;;;;1.38;0.90;;;15.60;41.40;;;;;;5982661;24;20194;-90
2021/05/21 07:00:36;;;;;;;1.67;0.90;;;15.90;42.20;;;;;;5987043;24;20203;-90
2021/05/21 07:03:03;;;;;;;0.90;0.90;;;16.00;38.90;;;;;;5993645;24;20219;-92
2021/05/21 07:05:29;;;;;;;3.90;0.90;;;16.20;39.90;;;;;;5992153;24;20221;-90
2021/05/21 07:07:56;;;;;;;1.20;0.93;;;16.20;38.60;;;;;;5992616;24;20256;-89
2021/05/21 07:10:23;;;;;;;2.45;1.10;;;16.40;40.50;;;;;;5994971;24;20667;-88
2021/05/21 07:12:49;;;;;;;1.27;1.00;;;16.50;38.40;;;;;;5999507;23;20199;-88
2021/05/21 07:15:16;;;;;;;2.67;1.00;;;16.50;38.70;;;;;;5974281;24;20212;-87
2021/05/21 07:17:42;;;;;;;1.98;0.90;;;16.70;38.80;;;;;;5999920;24;20239;-89
2021/05/21 07:20:12;;;;;;;0.80;0.80;;;16.80;38.60;;;;;;5999200;24;20183;-87
2021/05/21 07:22:38;;;;;;;2.58;0.80;;;16.30;37.70;;;;;;5992133;24;20179;-93
2021/05/21 07:25:06;;;;;;;0.95;0.90;;;16.20;38.30;;;;;;5993654;24;20208;-90
2021/05/21 07:27:33;;;;;;;0.80;0.80;;;16.30;38.70;;;;;;5988671;24;20203;-90
2021/05/21 07:30:01;;;;;;;0.98;0.98;;;16.30;38.30;;;;;;5986213;24;20262;-90
2021/05/21 07:32:27;;;;;;;1.77;0.95;;;16.70;39.50;;;;;;5987998;24;20416;-90
2021/05/21 07:34:56;;;;;;;1.98;1.35;;;17.00;39.00;;;;;;5992291;24;20199;-91
2021/05/21 07:37:22;;;;;;;2.55;1.00;;;17.30;38.90;;;;;;5994187;24;20211;-89
2021/05/21 07:39:49;;;;;;;1.48;1.00;;;17.50;37.20;;;;;;5998829;24;20256;-88
2021/05/21 07:42:15;;;;;;;4.38;1.13;;;17.90;35.50;;;;;;5997654;24;20211;-88
2021/05/21 07:44:42;;;;;;;2.88;0.95;;;18.00;36.10;;;;;;5998054;24;20180;-89
2021/05/21 07:47:09;;;;;;;2.20;1.00;;;17.80;37.30;;;;;;5995092;24;20207;-87
2021/05/21 07:49:35;;;;;;;4.60;1.10;;;17.70;36.60;;;;;;5998265;24;20213;-90
2021/05/21 07:52:02;;;;;;;1.00;1.00;;;17.80;35.90;;;;;;5996573;24;20241;-90
2021/05/21 07:54:28;;;;;;;1.67;0.90;;;17.80;35.40;;;;;;5996740;23;20249;-87
2021/05/21 07:56:55;;;;;;;2.33;1.10;;;17.80;35.30;;;;;;5996500;24;20270;-88
2021/05/21 07:59:21;;;;;;;3.13;0.93;;;17.60;34.60;;;;;;5998795;24;20223;-88
2021/05/21 08:01:49;;;;;;;1.02;0.93;;;17.70;34.30;;;;;;5998241;24;20307;-88
2021/05/21 08:04:16;;;;;;;1.17;0.95;;;17.70;34.40;;;;;;6000356;24;20215;-87
2021/05/21 08:06:42;;;;;;;2.05;0.90;;;17.60;34.00;;;;;;5999184;24;20287;-87
2021/05/21 08:09:09;;;;;;;2.20;1.00;;;17.50;34.50;;;;;;5999445;24;20378;-86
2021/05/21 08:11:36;;;;;;;6.38;1.17;;;17.60;36.30;;;;;;5998374;24;20526;-87
2021/05/21 08:14:03;;;;;;;2.28;1.00;;;17.40;36.60;;;;;;5998484;24;20227;-87
2021/05/21 08:16:30;;;;;;;1.67;1.00;;;17.20;35.50;;;;;;5998326;24;20258;-87
2021/05/21 08:18:58;;;;;;;1.92;1.10;;;17.20;37.70;;;;;;5998791;24;20171;-88
2021/05/21 08:21:25;;;;;;;1.35;1.13;;;17.20;38.60;;;;;;5999198;24;20286;-86
2021/05/21 08:23:52;;;;;;;2.53;1.17;;;17.30;37.30;;;;;;5998656;24;20186;-88
2021/05/21 08:26:22;;;;;;;1.05;0.88;;;17.50;36.20;;;;;;5998389;24;20742;-89
2021/05/21 08:28:48;;;;;;;1.33;1.00;;;17.60;35.10;;;;;;5995292;24;20479;-89
2021/05/21 08:31:15;;;;;;;3.90;1.38;;;17.50;36.90;;;;;;5995588;24;20217;-88
2021/05/21 08:33:43;;;;;;;3.47;1.15;;;17.60;35.80;;;;;;5995308;24;20597;-89
2021/05/21 08:36:11;;;;;;;2.25;0.90;;;17.50;33.20;;;;;;5996940;24;20211;-87
2021/05/21 08:38:41;;;;;;;1.50;0.85;;;17.30;33.70;;;;;;5996354;24;20199;-89
2021/05/21 08:41:13;;;;;;;2.95;1.00;;;16.90;34.10;;;;;;5986092;24;20215;-89
2021/05/21 08:44:04;;;;;;;0.73;0.60;;;16.70;34.50;;;;;;5991209;24;20168;-90
2021/05/21 08:46:33;;;;;;;1.83;0.90;;;16.70;36.30;;;;;;5987192;24;20565;-90
2021/05/21 08:49:06;;;;;;;1.55;0.98;;;16.60;37.40;;;;;;5986150;24;20180;-89
2021/05/21 08:51:34;;;;;;;1.85;0.95;;;16.70;37.20;;;;;;5991099;24;20286;-89
2021/05/21 08:54:01;;;;;;;2.85;1.02;;;16.70;38.10;;;;;;5997909;23;20279;-89
2021/05/21 08:56:27;;;;;;;3.20;1.00;;;16.60;38.70;;;;;;5997938;24;20550;-87
2021/05/21 08:58:57;;;;;;;2.25;1.10;;;16.60;38.40;;;;;;5998883;24;20179;-89
2021/05/21 09:01:26;;;;;;;3.53;0.95;;;16.70;38.70;;;;;;5999300;24;20257;-88
2021/05/21 09:04:00;;;;;;;1.60;1.00;;;16.70;37.50;;;;;;5997524;24;20187;-89
2021/05/21 09:06:26;;;;;;;0.80;0.80;;;16.70;36.80;;;;;;5996964;24;20214;-88
2021/05/21 09:08:55;;;;;;;1.42;0.85;;;16.70;36.60;;;;;;5999793;24;20193;-88
2021/05/21 09:11:31;;;;;;;1.60;1.00;;;16.90;37.90;;;;;;5998436;24;20242;-88
2021/05/21 09:14:06;;;;;;;2.00;1.00;;;17.10;35.80;;;;;;6000405;24;20191;-90
2021/05/21 09:16:34;;;;;;;1.27;0.90;;;17.30;37.00;;;;;;5999541;24;20210;-88
2021/05/21 09:19:05;;;;;;;1.65;1.00;;;17.40;36.20;;;;;;5999873;24;20262;-88
2021/05/21 09:21:49;;;;;;;1.77;0.82;;;17.20;35.10;;;;;;5993952;24;20207;-89
2021/05/21 09:24:21;;;;;;;1.63;1.20;;;17.20;36.10;;;;;;5996071;24;20175;-87
2021/05/21 09:26:50;;;;;;;0.95;0.70;;;17.20;37.10;;;;;;5998378;24;20261;-87
2021/05/21 09:29:19;;;;;;;0.88;0.88;;;17.10;37.20;;;;;;5992191;24;20235;-92
2021/05/21 09:31:47;;;;;;;0.93;0.75;;;16.60;39.20;;;;;;5982334;24;20211;-91
2021/05/21 09:34:14;;;;;;;1.10;0.90;;;16.50;40.60;;;;;;5983477;24;20213;-92
2021/05/21 09:36:42;;;;;;;1.27;1.17;;;16.70;40.50;;;;;;5983258;24;20211;-92
2021/05/21 09:39:11;;;;;;;1.70;0.90;;;17.00;41.10;;;;;;5983442;24;20516;-91
2021/05/21 09:41:47;;;;;;;3.50;1.50;;;17.40;38.70;;;;;;5989153;24;20235;-89
2021/05/21 09:44:14;;;;;;;1.13;1.02;;;18.10;38.70;;;;;;5990621;24;20244;-89
2021/05/21 09:46:42;;;;;;;1.13;1.00;;;18.60;35.80;;;;;;5988585;24;20269;-89
2021/05/21 09:49:26;;;;;;;1.00;0.88;;;18.80;34.80;;;;;;5990337;24;20261;-89
2021/05/21 09:51:53;;;;;;;0.80;0.80;;;19.10;35.20;;;;;;5989355;24;20211;-89
2021/05/21 09:54:19;;;;;;;0.98;0.70;;;19.20;33.10;;;;;;5993119;23;20239;-90
2021/05/21 09:57:00;;;;;;;1.08;0.90;;;19.50;33.00;;;;;;5993834;24;20234;-89
2021/05/21 09:59:40;;;;;;;1.20;0.93;;;19.50;31.60;;;;;;5992955;24;20223;-89
2021/05/21 10:02:18;;;;;;;1.73;1.10;;;19.20;31.40;;;;;;5989487;24;20210;-89
2021/05/21 10:04:45;;;;;;;0.80;0.80;;;19.20;31.80;;;;;;5990780;24;20251;-89
2021/05/21 10:07:12;;;;;;;2.63;0.80;;;18.80;33.00;;;;;;5991547;24;20223;-90
2021/05/21 10:09:39;;;;;;;1.42;1.00;;;18.50;36.70;;;;;;5992677;24;20188;-89
2021/05/21 10:12:08;;;;;;;1.30;1.00;;;18.20;34.60;;;;;;5991613;24;20226;-89
2021/05/21 10:14:35;;;;;;;2.88;1.00;;;18.10;38.20;;;;;;5992795;24;20239;-90
2021/05/21 10:17:02;;;;;;;2.00;1.05;;;18.10;38.30;;;;;;5993001;24;20207;-89
2021/05/21 10:19:30;;;;;;;1.45;0.95;;;18.20;37.30;;;;;;5993905;24;20231;-89
2021/05/21 10:21:58;;;;;;;0.98;0.90;;;18.20;38.10;;;;;;5993136;24;20207;-89
2021/05/21 10:24:31;;;;;;;1.00;1.00;;;18.20;40.20;;;;;;5994976;24;20222;-90
2021/05/21 10:27:00;;;;;;;1.13;1.02;;;17.90;37.60;;;;;;5983921;24;20293;-88
2021/05/21 10:29:31;;;;;;;1.38;1.08;;;18.00;38.00;;;;;;5995013;24;20168;-90
2021/05/21 10:32:11;;;;;;;0.98;0.90;;;18.00;39.40;;;;;;5994379;24;20207;-88
2021/05/21 10:34:42;;;;;;;3.38;1.20;;;18.10;39.10;;;;;;5996217;24;20187;-87
2021/05/21 10:37:19;;;;;;;1.30;0.98;;;18.40;42.70;;;;;;5992874;24;20306;-87
2021/05/21 10:40:05;;;;;;;1.15;1.00;;;18.70;39.20;;;;;;5992014;24;20178;-86
2021/05/21 10:42:37;;;;;;;1.65;1.00;;;18.90;38.30;;;;;;5992964;24;20236;-87
2021/05/21 10:45:10;;;;;;;1.08;1.00;;;19.20;37.00;;;;;;5988569;24;20229;-87
2021/05/21 10:47:37;;;;;;;1.00;0.90;;;19.50;35.10;;;;;;5987496;24;20179;-85
2021/05/21 10:50:19;;;;;;;2.05;1.10;;;19.40;35.70;;;;;;5982372;24;20218;-89
2021/05/21 10:53:00;;;;;;;3.08;1.10;;;19.20;36.10;;;;;;6016202;23;20183;-87
2021/05/21 10:55:54;;;;;;;2.70;1.58;;;18.90;37.90;;;;;;6018382;23;20197;-87
2021/05/21 10:58:29;;;;;;;1.70;1.05;;;18.40;39.00;;;;;;5975990;24;20190;-88
2021/05/21 11:01:19;;;;;;;2.33;1.30;;;18.10;38.70;;;;;;5992308;24;20198;-88
2021/05/21 11:04:07;;;;;;;3.38;1.10;;;17.60;38.80;;;;;;5992626;24;20243;-87
2021/05/21 11:06:52;;;;;;;2.28;1.10;;;17.40;40.00;;;;;;5989770;24;20258;-86
2021/05/21 11:09:21;;;;;;;3.70;1.10;;;17.10;40.80;;;;;;5990096;24;20179;-86
2021/05/21 11:12:04;;;;;;;1.90;1.23;;;16.90;41.40;;;;;;5984933;24;20270;-88
2021/05/21 11:14:42;;;;;;;1.40;1.17;;;16.80;43.50;;;;;;5985171;24;20240;-88
2021/05/21 11:17:22;;;;;;;2.88;1.35;;;16.60;45.90;;;;;;5983659;24;20281;-88
2021/05/21 11:19:52;;;;;;;5.88;1.40;;;16.40;48.30;;;;;;5983181;24;20623;-90
2021/05/21 11:22:37;;;;;;;3.28;1.10;;;16.30;49.10;;;;;;5983129;24;20211;-88
2021/05/21 11:25:05;;;;;;;2.10;1.45;;;16.20;52.00;;;;;;5984182;24;20178;-88
2021/05/21 11:27:34;;;;;;;1.65;1.13;;;16.10;52.30;;;;;;5987290;24;20207;-88
2021/05/21 11:30:04;;;;;;;2.67;1.27;;;15.90;54.40;;;;;;5987225;24;20227;-89
2021/05/21 11:32:33;;;;;;;2.17;1.23;;;15.70;56.20;;;;;;5985424;23;20207;-88
2021/05/21 11:34:59;;;;;;;2.40;1.45;;;15.60;58.90;;;;;;5987658;24;20564;-88
2021/05/21 11:37:28;;;;;;;1.95;1.40;;;15.60;59.20;;;;;;5987214;24;20278;-88
2021/05/21 11:39:55;;;;;;;3.38;1.30;;;15.70;61.00;;;;;;5985340;24;20179;-88
2021/05/21 11:42:22;;;;;;;1.25;1.15;;;15.90;60.30;;;;;;5983714;24;20542;-90
2021/05/21 11:44:50;;;;;;;2.17;1.30;;;16.20;59.90;;;;;;5982569;24;20799;-88
2021/05/21 11:47:24;;;;;;;2.70;1.42;;;16.50;57.90;;;;;;5983868;24;20207;-90
2021/05/21 11:49:53;;;;;;;4.05;1.73;;;17.00;56.70;;;;;;5985056;24;20218;-91
2021/05/21 11:52:22;;;;;;;1.60;1.30;;;17.20;55.70;;;;;;5983187;24;20286;-90
2021/05/21 11:54:49;;;;;;;1.77;1.35;;;17.30;53.50;;;;;;5984085;23;20211;-90
2021/05/21 11:57:19;;;;;;;1.63;1.15;;;17.10;55.70;;;;;;5984855;24;20211;-90
2021/05/21 11:59:45;;;;;;;1.55;1.45;;;16.70;57.60;;;;;;5984359;24;20175;-90
2021/05/21 12:02:14;;;;;;;1.55;1.20;;;16.80;59.80;;;;;;5983561;24;20210;-91
2021/05/21 12:04:41;;;;;;;1.30;1.20;;;17.00;57.40;;;;;;5984925;24;20182;-89
2021/05/21 12:07:16;;;;;;;1.20;1.00;;;16.90;57.50;;;;;;5982948;24;20290;-89
2021/05/21 12:09:53;;;;;;;5.68;1.15;;;16.70;60.30;;;;;;5985072;24;20199;-90
2021/05/21 12:12:27;;;;;;;1.13;0.90;;;16.50;60.10;;;;;;5982964;24;20238;-92
2021/05/21 12:15:06;;;;;;;1.73;1.40;;;16.20;62.50;;;;;;5984266;24;20238;-90
2021/05/21 12:17:32;;;;;;;1.20;1.10;;;15.80;66.90;;;;;;5987130;24;20266;-89
2021/05/21 12:20:09;;;;;;;1.30;1.20;;;15.70;69.90;;;;;;5987311;24;20642;-90
2021/05/21 12:22:36;;;;;;;2.65;1.00;;;15.50;71.60;;;;;;5984570;24;20667;-90
2021/05/21 12:25:16;;;;;;;2.47;1.27;;;15.40;72.70;;;;;;5986907;24;20191;-87
2021/05/21 12:27:43;;;;;;;1.63;1.40;;;15.40;72.60;;;;;;5985779;24;20186;-90
2021/05/21 12:30:11;;;;;;;1.98;1.30;;;15.50;74.00;;;;;;5982639;24;20203;-92
2021/05/21 12:32:38;;;;;;;3.38;1.30;;;15.90;74.00;;;;;;5982695;24;20204;-89
2021/05/21 12:35:07;;;;;;;1.35;1.20;;;16.10;70.80;;;;;;5983949;24;20274;-89
2021/05/21 12:37:34;;;;;;;1.00;1.00;;;16.00;68.30;;;;;;5983111;24;21038;-92
2021/05/21 12:40:05;;;;;;;1.30;1.20;;;16.10;68.50;;;;;;5978922;24;20179;-90
2021/05/21 12:42:31;;;;;;;1.13;1.00;;;16.20;66.00;;;;;;5984904;24;20208;-92
2021/05/21 12:44:58;;;;;;;3.25;1.25;;;16.50;63.80;;;;;;5984052;24;20176;-89
2021/05/21 12:47:24;;;;;;;1.10;1.00;;;16.60;61.10;;;;;;5986641;24;20651;-89
2021/05/21 12:49:50;;;;;;;1.13;1.00;;;16.80;60.90;;;;;;5988102;24;20168;-90
2021/05/21 12:52:17;;;;;;;1.55;1.00;;;17.20;60.80;;;;;;5990183;24;20223;-88
2021/05/21 12:54:44;;;;;;;1.00;0.90;;;17.50;57.70;;;;;;5993268;23;20211;-85
2021/05/21 12:57:18;;;;;;;2.15;1.05;;;17.50;53.70;;;;;;5991082;24;20206;-86
2021/05/21 12:59:48;;;;;;;2.60;1.10;;;17.50;53.60;;;;;;5994049;24;20183;-85
2021/05/21 13:02:17;;;;;;;1.13;1.02;;;17.40;53.50;;;;;;5989518;24;20214;-85
2021/05/21 13:04:56;;;;;;;1.63;0.90;;;17.40;57.00;;;;;;5994316;24;20179;-85
2021/05/21 13:07:23;;;;;;;1.17;1.08;;;17.50;53.60;;;;;;5994123;24;20211;-87
2021/05/21 13:09:53;;;;;;;2.33;1.00;;;17.30;53.40;;;;;;5989183;24;20180;-88
2021/05/21 13:12:31;;;;;;;3.85;0.85;;;16.70;54.50;;;;;;5983235;24;20239;-88
2021/05/21 13:14:58;;;;;;;0.90;0.90;;;16.60;54.30;;;;;;5989024;24;20416;-87
2021/05/21 13:17:30;;;;;;;1.08;0.95;;;16.80;55.20;;;;;;5987486;24;20213;-89